createdAt,value
2022-12-01T00:01:41.447Z,42.05
2022-12-01T00:04:07.956Z,44.75
2022-12-01T00:06:34.341Z,41.80
2022-12-01T00:09:20.283Z,45.38
2022-12-01T00:11:47.062Z,46.08
2022-12-01T00:14:13.551Z,44.92
2022-12-01T00:16:41.163Z,49.35
2022-12-01T00:19:08.721Z,48.05
2022-12-01T00:21:35.409Z,46.38
2022-12-01T00:24:07.981Z,43.78
2022-12-01T00:26:34.508Z,47.33
2022-12-01T00:29:00.844Z,51.50
2022-12-01T00:31:28.060Z,42.05
2022-12-01T00:33:55.154Z,49.80
2022-12-01T00:36:21.788Z,46.03
2022-12-01T00:38:54.373Z,44.00
2022-12-01T00:41:23.584Z,45.15
2022-12-01T00:43:50.240Z,46.17
2022-12-01T00:46:16.971Z,49.15
2022-12-01T00:48:43.423Z,48.58
2022-12-01T00:51:09.856Z,44.65
2022-12-01T00:53:36.190Z,46.03
2022-12-01T00:56:02.531Z,42.58
2022-12-01T00:58:28.867Z,41.97
2022-12-01T01:01:01.147Z,43.67
2022-12-01T01:03:28.748Z,41.20
2022-12-01T01:05:55.169Z,43.20
2022-12-01T01:08:21.650Z,42.38
2022-12-01T01:10:48.426Z,42.30
2022-12-01T01:13:17.939Z,43.00
2022-12-01T01:15:44.456Z,39.83
2022-12-01T01:18:12.425Z,45.13
2022-12-01T01:20:38.973Z,42.47
2022-12-01T01:23:05.323Z,46.25
2022-12-01T01:25:32.692Z,43.67
2022-12-01T01:27:59.220Z,42.75
2022-12-01T01:30:25.592Z,41.88
2022-12-01T01:32:52.036Z,46.53
2022-12-01T01:35:18.487Z,46.92
2022-12-01T01:37:44.899Z,47.75
2022-12-01T01:40:11.727Z,44.03
2022-12-01T01:42:38.126Z,43.20
2022-12-01T01:45:05.377Z,43.45
2022-12-01T01:47:37.841Z,41.60
2022-12-01T01:50:14.529Z,45.38
2022-12-01T01:52:48.101Z,44.65
2022-12-01T01:55:14.980Z,44.30
2022-12-01T01:57:43.516Z,45.97
2022-12-01T02:00:15.158Z,45.42
2022-12-01T02:02:44.079Z,45.75
2022-12-01T02:05:26.555Z,48.83
2022-12-01T02:10:29.923Z,43.72
2022-12-01T02:13:04.439Z,47.40
2022-12-01T02:15:43.774Z,45.40
2022-12-01T02:18:13.083Z,48.10
2022-12-01T02:21:15.045Z,42.13
2022-12-01T02:23:44.400Z,39.67
2022-12-01T02:26:29.449Z,44.63
2022-12-01T02:29:23.399Z,50.03
2022-12-01T02:32:25.312Z,39.63
2022-12-01T02:35:01.788Z,43.78
2022-12-01T02:37:37.347Z,45.13
2022-12-01T02:40:16.443Z,42.10
2022-12-01T02:43:08.509Z,34.30
2022-12-01T02:45:47.111Z,46.97
2022-12-01T02:48:24.020Z,45.22
2022-12-01T02:50:53.276Z,46.35
2022-12-01T02:53:21.120Z,46.65
2022-12-01T02:55:53.666Z,46.50
2022-12-01T02:58:21.000Z,41.22
2022-12-01T03:01:07.152Z,49.63
2022-12-01T03:03:54.912Z,54.15
2022-12-01T03:06:37.474Z,43.47
2022-12-01T03:09:43.426Z,47.33
2022-12-01T03:12:40.533Z,48.22
2022-12-01T03:15:23.961Z,51.42
2022-12-01T03:18:15.770Z,46.47
2022-12-01T03:20:50.947Z,49.90
2022-12-01T03:23:25.286Z,45.53
2022-12-01T03:25:54.989Z,50.92
2022-12-01T03:28:28.797Z,42.58
2022-12-01T03:30:59.409Z,52.85
2022-12-01T03:33:33.013Z,49.97
2022-12-01T03:36:15.075Z,47.17
2022-12-01T03:38:46.751Z,48.63
2022-12-01T03:41:18.199Z,50.03
2022-12-01T03:44:16.905Z,48.08
2022-12-01T03:46:51.931Z,46.42
2022-12-01T03:49:19.728Z,46.75
2022-12-01T03:52:28.668Z,48.13
2022-12-01T03:55:11.908Z,49.80
2022-12-01T03:57:44.051Z,47.30
2022-12-01T04:00:11.548Z,51.58
2022-12-01T04:02:38.238Z,47.80
2022-12-01T04:05:06.068Z,42.85
2022-12-01T04:07:32.552Z,50.63
2022-12-01T04:09:59.169Z,45.53
2022-12-01T04:12:32.978Z,46.05
2022-12-01T04:15:02.474Z,50.88
2022-12-01T04:17:29.793Z,55.35
2022-12-01T04:19:56.405Z,52.42
2022-12-01T04:22:24.269Z,52.25
2022-12-01T04:24:50.825Z,50.58
2022-12-01T04:27:17.372Z,49.63
2022-12-01T04:29:43.869Z,46.95
2022-12-01T04:32:10.266Z,53.03
2022-12-01T04:34:36.664Z,47.58
2022-12-01T04:37:07.608Z,55.92
2022-12-01T04:39:34.501Z,51.65
2022-12-01T04:42:01.026Z,48.20
2022-12-01T04:44:33.002Z,49.00
2022-12-01T04:47:01.448Z,51.45
2022-12-01T04:49:27.863Z,58.25
2022-12-01T04:51:54.398Z,48.45
2022-12-01T04:54:20.800Z,48.90
2022-12-01T04:56:47.197Z,45.50
2022-12-01T04:59:13.864Z,51.75
2022-12-01T05:01:40.522Z,45.35
2022-12-01T05:04:07.301Z,53.08
2022-12-01T05:06:33.939Z,50.63
2022-12-01T05:09:01.649Z,52.80
2022-12-01T05:11:30.803Z,48.20
2022-12-01T05:13:57.311Z,48.25
2022-12-01T05:16:27.283Z,54.20
2022-12-01T05:19:14.663Z,50.55
2022-12-01T05:21:42.450Z,53.08
2022-12-01T05:24:10.178Z,49.97
2022-12-01T05:26:36.743Z,47.67
2022-12-01T05:29:04.005Z,49.20
2022-12-01T05:31:31.113Z,49.40
2022-12-01T05:33:57.561Z,49.63
2022-12-01T05:36:24.207Z,55.35
2022-12-01T05:38:53.095Z,50.80
2022-12-01T05:41:19.501Z,50.03
2022-12-01T05:43:46.039Z,52.17
2022-12-01T05:46:12.616Z,55.72
2022-12-01T05:48:39.360Z,53.03
2022-12-01T05:51:14.714Z,54.50
2022-12-01T05:53:41.758Z,50.85
2022-12-01T05:56:08.533Z,53.92
2022-12-01T05:58:35.940Z,50.50
2022-12-01T06:01:03.049Z,46.33
2022-12-01T06:03:32.294Z,48.85
2022-12-01T06:05:58.626Z,47.95
2022-12-01T06:08:25.182Z,46.45
2022-12-01T06:10:51.626Z,53.03
2022-12-01T06:13:18.043Z,57.85
2022-12-01T06:15:44.498Z,54.55
2022-12-01T06:18:10.982Z,46.33
2022-12-01T06:20:37.328Z,56.00
2022-12-01T06:23:03.828Z,49.50
2022-12-01T06:25:30.172Z,50.97
2022-12-01T06:27:58.144Z,49.13
2022-12-01T06:30:25.104Z,51.30
2022-12-01T06:32:51.713Z,51.78
2022-12-01T06:35:18.291Z,51.15
2022-12-01T06:37:44.811Z,51.28
2022-12-01T06:40:11.763Z,50.40
2022-12-01T06:42:38.311Z,48.22
2022-12-01T06:45:05.376Z,51.65
2022-12-01T06:47:31.726Z,55.38
2022-12-01T06:49:58.064Z,52.25
2022-12-01T06:52:24.504Z,54.78
2022-12-01T06:54:51.162Z,48.72
2022-12-01T06:57:18.197Z,47.42
2022-12-01T06:59:45.226Z,55.00
2022-12-01T07:02:12.104Z,50.13
2022-12-01T07:04:38.652Z,56.38
2022-12-01T07:07:06.208Z,58.10
2022-12-01T07:09:32.648Z,55.40
2022-12-01T07:11:59.162Z,51.22
2022-12-01T07:14:27.121Z,42.08
2022-12-01T07:16:54.251Z,58.25
2022-12-01T07:19:20.718Z,46.22
2022-12-01T07:21:49.199Z,46.35
2022-12-01T07:24:16.228Z,50.53
2022-12-01T07:26:43.259Z,57.00
2022-12-01T07:29:10.791Z,49.40
2022-12-01T07:31:38.132Z,53.65
2022-12-01T07:34:05.202Z,49.85
2022-12-01T07:36:31.640Z,50.38
2022-12-01T07:38:57.984Z,53.33
2022-12-01T07:41:24.560Z,56.85
2022-12-01T07:43:54.994Z,52.00
2022-12-01T07:46:24.842Z,55.60
2022-12-01T07:48:52.507Z,58.60
2022-12-01T07:51:22.309Z,51.28
2022-12-01T07:53:50.436Z,51.70
2022-12-01T07:56:20.250Z,51.67
2022-12-01T07:58:47.025Z,46.58
2022-12-01T08:01:16.664Z,53.22
2022-12-01T08:03:43.602Z,54.85
2022-12-01T08:06:10.803Z,56.95
2022-12-01T08:08:39.832Z,51.72
2022-12-01T08:11:14.794Z,51.10
2022-12-01T08:13:44.130Z,41.72
2022-12-01T08:16:13.278Z,60.35
2022-12-01T08:18:40.910Z,59.65
2022-12-01T08:21:09.415Z,60.30
2022-12-01T08:23:35.873Z,54.63
2022-12-01T08:26:08.148Z,49.47
2022-12-01T08:31:12.610Z,60.03
2022-12-01T08:33:39.263Z,49.25
2022-12-01T08:36:06.386Z,48.55
2022-12-01T08:38:33.325Z,52.00
2022-12-01T08:41:06.186Z,58.15
2022-12-01T08:44:02.091Z,52.85
2022-12-01T08:46:19.414Z,56.95
2022-12-01T08:48:46.356Z,52.38
2022-12-01T08:51:18.521Z,52.38
2022-12-01T08:53:47.689Z,56.65
2022-12-01T08:56:16.233Z,58.35
2022-12-01T08:58:43.235Z,61.28
2022-12-01T09:01:12.086Z,50.97
2022-12-01T09:03:39.789Z,51.17
2022-12-01T09:06:12.953Z,50.55
2022-12-01T09:08:39.904Z,53.15
2022-12-01T09:11:15.528Z,54.90
2022-12-01T09:13:43.025Z,53.22
2022-12-01T09:16:15.620Z,54.03
2022-12-01T09:18:43.153Z,50.95
2022-12-01T09:21:13.536Z,47.72
2022-12-01T09:23:40.271Z,51.83
2022-12-01T09:26:13.219Z,49.50
2022-12-01T09:28:40.084Z,54.45
2022-12-01T09:31:11.895Z,48.58
2022-12-01T09:33:38.701Z,50.70
2022-12-01T09:36:07.250Z,53.83
2022-12-01T09:38:36.223Z,49.75
2022-12-01T09:41:07.559Z,55.42
2022-12-01T09:43:41.507Z,54.45
2022-12-01T09:46:13.947Z,60.22
2022-12-01T09:48:45.197Z,52.75
2022-12-01T09:51:26.076Z,47.37
2022-12-01T09:53:56.557Z,48.17
2022-12-01T09:56:32.204Z,51.10
2022-12-01T09:59:02.425Z,44.95
2022-12-01T10:01:36.461Z,49.33
2022-12-01T10:04:14.881Z,47.63
2022-12-01T10:06:53.059Z,51.72
2022-12-01T10:09:43.528Z,49.00
2022-12-01T10:12:15.725Z,41.60
2022-12-01T10:14:47.608Z,44.28
2022-12-01T10:19:55.444Z,44.47
2022-12-01T10:22:46.665Z,48.10
2022-12-01T10:25:24.399Z,44.78
2022-12-01T10:27:59.992Z,46.63
2022-12-01T10:30:26.669Z,46.70
2022-12-01T10:33:02.334Z,44.03
2022-12-01T10:35:35.983Z,44.15
2022-12-01T10:38:06.646Z,45.50
2022-12-01T10:40:38.268Z,46.42
2022-12-01T10:43:04.627Z,37.45
2022-12-01T10:45:35.821Z,38.58
2022-12-01T10:48:20.716Z,40.70
2022-12-01T10:50:47.289Z,39.90
2022-12-01T10:53:22.723Z,40.38
2022-12-01T10:56:04.903Z,35.17
2022-12-01T10:58:46.299Z,48.95
2022-12-01T11:01:25.281Z,36.90
2022-12-01T11:04:04.098Z,37.53
2022-12-01T11:06:31.437Z,39.67
2022-12-01T11:09:03.543Z,36.90
2022-12-01T11:11:39.772Z,38.95
2022-12-01T11:14:18.593Z,39.70
2022-12-01T11:16:47.851Z,37.42
2022-12-01T11:19:14.294Z,40.08
2022-12-01T11:21:53.410Z,39.13
2022-12-01T11:24:40.387Z,36.88
2022-12-01T11:27:18.284Z,38.67
2022-12-01T11:29:50.179Z,34.83
2022-12-01T11:32:21.169Z,32.30
2022-12-01T11:34:51.806Z,31.50
2022-12-01T11:37:25.736Z,32.78
2022-12-01T11:39:52.965Z,30.13
2022-12-01T11:42:26.616Z,27.60
2022-12-01T11:45:18.464Z,29.30
2022-12-01T11:48:04.850Z,26.15
2022-12-01T11:50:35.063Z,26.92
2022-12-01T11:53:02.142Z,29.98
2022-12-01T11:55:30.920Z,23.73
2022-12-01T11:58:01.630Z,25.27
2022-12-01T12:00:34.499Z,26.05
2022-12-01T12:03:20.208Z,28.15
2022-12-01T12:06:40.176Z,31.60
2022-12-01T12:09:15.549Z,32.85
2022-12-01T12:12:04.805Z,29.38
2022-12-01T12:14:36.861Z,32.60
2022-12-01T12:17:26.560Z,30.38
2022-12-01T12:20:21.688Z,32.13
2022-12-01T12:23:09.338Z,29.10
2022-12-01T12:25:52.987Z,29.20
2022-12-01T12:28:56.714Z,33.60
2022-12-01T12:31:44.926Z,35.80
2022-12-01T12:34:55.148Z,29.02
2022-12-01T12:37:45.435Z,25.80
2022-12-01T12:40:54.128Z,28.38
2022-12-01T12:43:47.086Z,31.35
2022-12-01T12:46:36.935Z,31.98
2022-12-01T12:49:31.284Z,30.50
2022-12-01T12:52:18.578Z,29.23
2022-12-01T12:55:15.138Z,29.30
2022-12-01T12:57:55.619Z,32.55
2022-12-01T13:00:26.274Z,30.88
2022-12-01T13:03:20.850Z,33.05
2022-12-01T13:05:53.937Z,31.17
2022-12-01T13:08:41.365Z,35.15
2022-12-01T13:11:23.644Z,30.05
2022-12-01T13:14:02.701Z,26.70
2022-12-01T13:16:49.399Z,26.70
2022-12-01T13:19:20.796Z,24.05
2022-12-01T13:21:49.875Z,26.45
2022-12-01T13:24:23.391Z,25.73
2022-12-01T13:26:56.441Z,27.48
2022-12-01T13:29:25.818Z,23.65
2022-12-01T13:31:54.449Z,30.27
2022-12-01T13:34:37.736Z,25.38
2022-12-01T13:37:04.349Z,29.83
2022-12-01T13:39:36.158Z,28.38
2022-12-01T13:42:05.232Z,28.33
2022-12-01T13:44:39.529Z,28.23
2022-12-01T13:47:08.627Z,29.23
2022-12-01T13:49:44.113Z,26.35
2022-12-01T13:52:22.449Z,24.95
2022-12-01T13:55:01.042Z,25.35
2022-12-01T13:57:30.422Z,26.67
2022-12-01T13:59:59.804Z,29.45
2022-12-01T14:02:32.814Z,26.92
2022-12-01T14:05:27.160Z,26.48
2022-12-01T14:07:54.434Z,28.65
2022-12-01T14:10:31.432Z,31.00
2022-12-01T14:13:03.392Z,28.70
2022-12-01T14:15:31.742Z,26.60
2022-12-01T14:18:16.676Z,33.63
2022-12-01T14:20:48.606Z,26.23
2022-12-01T14:23:24.163Z,27.05
2022-12-01T14:26:14.616Z,25.67
2022-12-01T14:28:59.867Z,29.52
2022-12-01T14:31:32.344Z,25.42
2022-12-01T14:34:01.642Z,27.00
2022-12-01T14:36:57.201Z,24.25
2022-12-01T14:39:27.719Z,25.15
2022-12-01T14:42:00.686Z,25.77
2022-12-01T14:44:32.963Z,28.17
2022-12-01T14:47:12.314Z,24.35
2022-12-01T14:49:44.512Z,27.27
2022-12-01T14:54:49.262Z,27.50
2022-12-01T14:57:20.455Z,23.55
2022-12-01T14:59:49.476Z,27.23
2022-12-01T15:02:17.171Z,26.73
2022-12-01T15:05:06.861Z,30.27
2022-12-01T15:07:48.127Z,28.05
2022-12-01T15:10:35.524Z,30.55
2022-12-01T15:13:22.632Z,29.25
2022-12-01T15:15:56.658Z,25.95
2022-12-01T15:18:39.480Z,31.20
2022-12-01T15:21:09.751Z,32.97
2022-12-01T15:23:36.807Z,30.52
2022-12-01T15:26:03.992Z,35.50
2022-12-01T15:28:33.436Z,27.95
2022-12-01T15:31:02.038Z,26.40
2022-12-01T15:33:37.272Z,28.98
2022-12-01T15:36:04.503Z,28.10
2022-12-01T15:38:37.742Z,29.48
2022-12-01T15:41:28.981Z,26.42
2022-12-01T15:43:57.815Z,28.65
2022-12-01T15:46:29.806Z,31.73
2022-12-01T15:49:16.980Z,27.88
2022-12-01T15:51:43.755Z,26.35
2022-12-01T15:54:19.485Z,28.45
2022-12-01T15:56:50.004Z,28.90
2022-12-01T15:59:26.140Z,42.70
2022-12-01T16:01:53.247Z,29.77
2022-12-01T16:04:23.031Z,32.03
2022-12-01T16:07:01.847Z,31.67
2022-12-01T16:09:41.506Z,33.22
2022-12-01T16:12:17.473Z,32.28
2022-12-01T16:15:15.214Z,30.85
2022-12-01T16:17:48.826Z,34.83
2022-12-01T16:20:30.673Z,30.25
2022-12-01T16:23:00.704Z,26.08
2022-12-01T16:25:45.813Z,29.02
2022-12-01T16:28:22.072Z,28.77
2022-12-01T16:30:52.807Z,25.38
2022-12-01T16:33:22.925Z,30.40
2022-12-01T16:35:50.313Z,27.42
2022-12-01T16:38:22.832Z,26.63
2022-12-01T16:40:52.520Z,29.02
2022-12-01T16:43:21.703Z,22.33
2022-12-01T16:45:52.767Z,26.38
2022-12-01T16:48:22.876Z,26.20
2022-12-01T16:50:50.955Z,26.88
2022-12-01T16:53:17.973Z,27.38
2022-12-01T16:55:49.624Z,29.90
2022-12-01T16:58:16.019Z,37.75
2022-12-01T17:00:42.419Z,34.35
2022-12-01T17:03:14.524Z,35.88
2022-12-01T17:05:40.985Z,37.08
2022-12-01T17:08:07.512Z,35.97
2022-12-01T17:10:34.001Z,31.67
2022-12-01T17:13:00.486Z,31.08
2022-12-01T17:15:26.857Z,32.25
2022-12-01T17:17:53.335Z,32.30
2022-12-01T17:20:22.431Z,28.60
2022-12-01T17:22:48.920Z,30.33
2022-12-01T17:25:15.610Z,28.30
2022-12-01T17:27:44.018Z,33.53
2022-12-01T17:30:11.961Z,35.72
2022-12-01T17:32:38.399Z,40.65
2022-12-01T17:35:05.245Z,36.85
2022-12-01T17:37:31.784Z,30.92
2022-12-01T17:39:58.185Z,33.80
2022-12-01T17:42:24.635Z,35.38
2022-12-01T17:44:51.290Z,37.35
2022-12-01T17:47:18.272Z,33.88
2022-12-01T17:49:44.694Z,31.63
2022-12-01T17:52:11.208Z,31.65
2022-12-01T17:54:38.234Z,39.15
2022-12-01T17:57:04.844Z,34.95
2022-12-01T17:59:31.537Z,34.35
2022-12-01T18:01:58.065Z,39.85
2022-12-01T18:04:24.716Z,40.30
2022-12-01T18:06:54.579Z,40.42
2022-12-01T18:09:21.447Z,37.47
2022-12-01T18:11:47.914Z,32.10
2022-12-01T18:14:17.677Z,30.98
2022-12-01T18:16:44.600Z,31.25
2022-12-01T18:19:11.161Z,30.23
2022-12-01T18:21:38.644Z,29.30
2022-12-01T18:24:05.583Z,32.88
2022-12-01T18:26:33.435Z,28.42
2022-12-01T18:29:06.074Z,34.10
2022-12-01T18:31:33.069Z,30.67
2022-12-01T18:34:03.008Z,34.47
2022-12-01T18:36:31.402Z,31.98
2022-12-01T18:38:59.778Z,32.75
2022-12-01T18:41:26.868Z,34.22
2022-12-01T18:43:53.461Z,35.53
2022-12-01T18:46:20.933Z,39.58
2022-12-01T18:48:52.768Z,42.47
2022-12-01T18:51:20.664Z,46.20
2022-12-01T18:53:47.720Z,49.00
2022-12-01T18:56:15.420Z,44.67
2022-12-01T18:58:42.541Z,42.10
2022-12-01T19:01:28.185Z,40.13
2022-12-01T19:03:55.894Z,44.85
2022-12-01T19:06:22.959Z,41.28
2022-12-01T19:08:49.799Z,41.75
2022-12-01T19:11:16.762Z,42.63
2022-12-01T19:13:43.601Z,44.03
2022-12-01T19:16:13.051Z,42.70
2022-12-01T19:18:40.309Z,42.83
2022-12-01T19:21:09.476Z,35.88
2022-12-01T19:23:39.099Z,38.22
2022-12-01T19:26:07.701Z,39.47
2022-12-01T19:28:35.272Z,34.80
2022-12-01T19:31:06.974Z,38.78
2022-12-01T19:33:33.953Z,36.17
2022-12-01T19:36:08.673Z,34.65
2022-12-01T19:38:35.316Z,33.08
2022-12-01T19:41:02.075Z,35.20
2022-12-01T19:43:28.617Z,31.25
2022-12-01T19:45:55.356Z,33.97
2022-12-01T19:48:21.926Z,29.33
2022-12-01T19:50:48.318Z,41.25
2022-12-01T19:53:14.835Z,37.63
2022-12-01T19:55:41.326Z,37.63
2022-12-01T19:58:07.704Z,34.20
2022-12-01T20:00:34.243Z,32.25
2022-12-01T20:03:01.056Z,24.40
2022-12-01T20:05:27.483Z,30.10
2022-12-01T20:07:53.945Z,32.92
2022-12-01T20:10:20.621Z,37.60
2022-12-01T20:12:47.621Z,39.55
2022-12-01T20:15:14.614Z,43.70
2022-12-01T20:17:41.141Z,43.20
2022-12-01T20:20:08.232Z,47.08
2022-12-01T20:22:35.578Z,37.70
2022-12-01T20:25:02.549Z,45.92
2022-12-01T20:27:29.282Z,37.58
2022-12-01T20:29:56.012Z,34.05
2022-12-01T20:32:23.909Z,33.58
2022-12-01T20:34:53.379Z,31.65
2022-12-01T20:37:19.767Z,34.58
2022-12-01T20:39:47.347Z,37.92
2022-12-01T20:42:13.664Z,31.90
2022-12-01T20:44:40.335Z,26.98
2022-12-01T20:47:06.839Z,31.00
2022-12-01T20:49:33.219Z,34.35
2022-12-01T20:51:59.590Z,34.30
2022-12-01T20:54:28.876Z,30.80
2022-12-01T20:56:58.904Z,33.95
2022-12-01T20:59:26.086Z,34.83
2022-12-01T21:01:52.518Z,37.17
2022-12-01T21:04:18.994Z,37.05
2022-12-01T21:06:45.780Z,39.50
2022-12-01T21:09:13.218Z,39.90
2022-12-01T21:12:06.459Z,42.55
2022-12-01T21:14:41.101Z,44.15
2022-12-01T21:17:32.087Z,40.63
2022-12-01T21:20:21.529Z,38.28
2022-12-01T21:22:50.165Z,39.90
2022-12-01T21:25:23.445Z,40.83
2022-12-01T21:27:50.446Z,41.97
2022-12-01T21:30:20.848Z,48.60
2022-12-01T21:32:50.210Z,45.58
2022-12-01T21:35:20.068Z,43.25
2022-12-01T21:37:47.737Z,41.15
2022-12-01T21:40:25.888Z,39.65
2022-12-01T21:42:52.793Z,37.20
2022-12-01T21:45:31.835Z,41.03
2022-12-01T21:48:08.211Z,39.42
2022-12-01T21:50:34.655Z,43.75
2022-12-01T21:53:01.268Z,41.00
2022-12-01T21:55:35.357Z,41.75
2022-12-01T21:58:02.046Z,42.30
2022-12-01T22:00:32.532Z,40.95
2022-12-01T22:03:11.065Z,41.70
2022-12-01T22:06:01.028Z,37.15
2022-12-01T22:08:35.516Z,41.45
2022-12-01T22:11:16.308Z,41.92
2022-12-01T22:13:51.675Z,42.78
2022-12-01T22:16:20.856Z,39.05
2022-12-01T22:18:54.784Z,46.15
2022-12-01T22:21:23.913Z,43.88
2022-12-01T22:24:00.810Z,40.83
2022-12-01T22:26:27.484Z,43.20
2022-12-01T22:28:58.409Z,39.47
2022-12-01T22:31:26.036Z,41.35
2022-12-01T22:34:00.176Z,44.78
2022-12-01T22:36:31.598Z,41.05
2022-12-01T22:39:01.276Z,44.30
2022-12-01T22:41:28.712Z,47.13
2022-12-01T22:44:00.516Z,44.25
2022-12-01T22:46:35.353Z,51.70
2022-12-01T22:49:10.726Z,46.88
2022-12-01T22:51:40.030Z,50.78
2022-12-01T22:54:09.092Z,51.40
2022-12-01T22:56:39.927Z,51.25
2022-12-01T22:59:33.053Z,48.38
2022-12-01T23:02:06.113Z,51.42
2022-12-01T23:04:38.186Z,56.88
2022-12-01T23:07:23.710Z,51.78
2022-12-01T23:09:50.211Z,55.05
2022-12-01T23:12:35.861Z,61.38
2022-12-01T23:15:27.268Z,55.92
2022-12-01T23:17:54.122Z,62.70
2022-12-01T23:20:20.409Z,60.25
2022-12-01T23:22:47.547Z,61.78
2022-12-01T23:25:18.954Z,55.47
2022-12-01T23:27:47.656Z,69.82
2022-12-01T23:30:16.096Z,66.65
2022-12-01T23:32:43.752Z,71.13
2022-12-01T23:35:18.272Z,64.78
2022-12-01T23:37:47.411Z,64.30
2022-12-01T23:40:28.087Z,63.85
2022-12-01T23:42:54.687Z,67.95
2022-12-01T23:45:27.277Z,62.38
2022-12-01T23:47:56.427Z,63.47
2022-12-01T23:50:32.794Z,72.90
2022-12-01T23:52:59.138Z,65.18
2022-12-01T23:55:31.570Z,78.15
2022-12-01T23:57:59.015Z,75.82
